Whitby, Canada
Current Conditions -  °F | °C
As of 4:00 AM on Monday 20 Oct 2014 (Local Time) from CYOO Reporting Station
Overcast Overcast  
Wind Chill: 39°   Ceiling: 10000
Heat Index: 39°   Visibility: 9mi
Dew Point: 37°   Wind: 0mph
Humidity: 93%   Direction: NA
Pressure: 29.95"   Gusts: NA
Location:  43.9°N, 78.94°W
Report Text: CYOO 200800Z AUTO 00000KT 9SM OVC100 04/03 A2995 RMK SLP145
Loading
Personal Weather Stations






























Interactive Weather Map
Tropical Storm Tracking
New forecast layout! Learn more

10-Day Weather Forecast

Advertisements
Track Severe Weather on mobile